createdAt,value
2017-07-15T00:00:01.804Z,15
2017-07-15T00:05:01.601Z,15
2017-07-15T00:10:01.398Z,15
2017-07-15T00:15:01.627Z,15
2017-07-15T00:20:01.434Z,15
2017-07-15T00:25:01.529Z,15
2017-07-15T00:30:01.455Z,15
2017-07-15T00:35:01.951Z,15
2017-07-15T00:40:01.744Z,15
2017-07-15T00:45:01.744Z,15
2017-07-15T00:50:01.612Z,15
2017-07-15T00:55:01.201Z,15
2017-07-15T01:00:02.032Z,15
2017-07-15T01:05:01.381Z,14.9
2017-07-15T01:10:01.203Z,14.8
2017-07-15T01:15:01.650Z,14.8
2017-07-15T01:20:01.554Z,14.7
2017-07-15T01:25:01.470Z,14.7
2017-07-15T01:30:01.368Z,14.7
2017-07-15T01:35:01.382Z,14.6
2017-07-15T01:40:01.646Z,14.6
2017-07-15T01:45:01.766Z,14.6
2017-07-15T01:50:01.658Z,14.6
2017-07-15T01:55:01.874Z,14.6
2017-07-15T02:00:01.768Z,14.6
2017-07-15T02:05:01.442Z,14.5
2017-07-15T02:10:01.200Z,14.4
2017-07-15T02:15:01.936Z,14.4
2017-07-15T02:20:01.980Z,14.3
2017-07-15T02:25:01.935Z,14.3
2017-07-15T02:30:01.575Z,14.2
2017-07-15T02:35:02.279Z,14.1
2017-07-15T02:40:01.431Z,14
2017-07-15T02:45:01.406Z,13.9
2017-07-15T02:50:01.524Z,13.8
2017-07-15T02:55:02.128Z,13.8
2017-07-15T03:00:01.172Z,13.6
2017-07-15T03:05:01.902Z,13.6
2017-07-15T03:10:02.086Z,13.6
2017-07-15T03:15:01.311Z,13.6
2017-07-15T03:20:02.073Z,13.5
2017-07-15T03:25:01.985Z,13.5
2017-07-15T03:30:02.186Z,13.5
2017-07-15T03:35:01.382Z,13.5
2017-07-15T03:40:01.456Z,13.5
2017-07-15T03:45:01.903Z,13.5
2017-07-15T03:50:01.658Z,13.5
2017-07-15T03:55:01.564Z,13.5
2017-07-15T04:00:01.782Z,13.5
2017-07-15T04:05:01.760Z,13.5
2017-07-15T04:10:01.574Z,13.5
2017-07-15T04:15:01.641Z,13.5
2017-07-15T04:20:01.557Z,13.7
2017-07-15T04:25:01.794Z,13.7
2017-07-15T04:30:01.298Z,13.7
2017-07-15T04:35:02.132Z,13.8
2017-07-15T04:40:01.959Z,13.8
2017-07-15T04:45:02.006Z,13.8
2017-07-15T04:50:01.917Z,14
2017-07-15T04:55:01.755Z,14
2017-07-15T05:00:01.842Z,14.1
2017-07-15T05:05:01.638Z,14.1
2017-07-15T05:10:01.313Z,14.2
2017-07-15T05:15:01.328Z,14.2
2017-07-15T05:20:01.984Z,14.2
2017-07-15T05:25:01.992Z,14.2
2017-07-15T05:30:02.086Z,14.6
2017-07-15T05:35:01.311Z,14.7
2017-07-15T05:40:01.380Z,14.7
2017-07-15T05:45:02.004Z,15
2017-07-15T05:50:01.960Z,15
2017-07-15T05:55:01.692Z,15
2017-07-15T06:00:01.756Z,15
2017-07-15T06:05:01.955Z,15
2017-07-15T06:10:01.367Z,15
2017-07-15T06:15:01.397Z,15
2017-07-15T06:20:02.117Z,15
2017-07-15T06:25:02.131Z,15
2017-07-15T06:30:02.138Z,15
2017-07-15T06:35:01.806Z,15
2017-07-15T06:40:01.567Z,15.4
2017-07-15T06:45:01.384Z,15.5
2017-07-15T06:50:01.434Z,15.6
2017-07-15T06:55:01.553Z,15.6
2017-07-15T07:00:02.010Z,15.8
2017-07-15T07:05:02.094Z,15.9
2017-07-15T07:10:01.185Z,16
2017-07-15T07:15:02.076Z,16
2017-07-15T07:20:01.832Z,16.2
2017-07-15T07:25:01.364Z,16.3
2017-07-15T07:30:01.388Z,16.4
2017-07-15T07:35:02.166Z,16.4
2017-07-15T07:40:01.992Z,16.5
2017-07-15T07:45:01.356Z,16.6
2017-07-15T07:50:01.566Z,16.7
2017-07-15T07:55:01.364Z,16.8
2017-07-15T08:00:01.447Z,16.8
2017-07-15T08:05:02.023Z,17.1
2017-07-15T08:10:01.381Z,17.2
2017-07-15T08:15:01.774Z,17.2
2017-07-15T08:20:01.534Z,17.5
2017-07-15T08:25:02.172Z,17.6
2017-07-15T08:30:01.228Z,17.6
2017-07-15T08:35:01.622Z,17.6
2017-07-15T08:40:01.358Z,18
2017-07-15T08:45:01.623Z,18
2017-07-15T08:50:02.153Z,18
2017-07-15T08:55:01.780Z,18
2017-07-15T09:00:01.315Z,18.6
2017-07-15T09:05:02.211Z,18.6
2017-07-15T09:10:02.017Z,19.2
2017-07-15T09:15:01.664Z,19.4
2017-07-15T09:20:01.290Z,19.4
2017-07-15T09:25:01.735Z,19.6
2017-07-15T09:30:01.236Z,19.6
2017-07-15T09:35:01.212Z,19.6
2017-07-15T09:40:01.967Z,19.6
2017-07-15T09:45:01.372Z,20.1
2017-07-15T09:50:01.676Z,20.1
2017-07-15T09:55:01.416Z,20.1
2017-07-15T10:00:01.889Z,20.1
2017-07-15T10:05:02.519Z,20.1
2017-07-15T10:10:01.746Z,20.2
2017-07-15T10:15:01.902Z,20.2
2017-07-15T10:20:01.599Z,20.2
2017-07-15T10:25:02.041Z,20.2
2017-07-15T10:30:01.349Z,20.2
2017-07-15T10:35:01.395Z,20.9
2017-07-15T10:40:01.332Z,21
2017-07-15T10:45:01.755Z,21
2017-07-15T10:50:01.739Z,21
2017-07-15T10:55:02.631Z,21
2017-07-15T11:00:02.150Z,21
2017-07-15T11:05:01.966Z,21.3
2017-07-15T11:10:02.085Z,21.3
2017-07-15T11:15:02.147Z,21.7
2017-07-15T11:20:01.598Z,21.6
2017-07-15T11:25:01.681Z,21.6
2017-07-15T11:30:02.127Z,21.6
2017-07-15T11:35:01.979Z,21.2
2017-07-15T11:40:01.850Z,21.2
2017-07-15T11:45:02.140Z,21.2
2017-07-15T11:50:01.716Z,21.2
2017-07-15T11:55:02.246Z,21
2017-07-15T12:00:01.957Z,21
2017-07-15T12:05:01.971Z,21
2017-07-15T12:10:02.050Z,21
2017-07-15T12:15:01.371Z,21
2017-07-15T12:20:02.152Z,21
2017-07-15T12:25:01.181Z,21
2017-07-15T12:30:01.652Z,21
2017-07-15T12:35:01.800Z,21
2017-07-15T12:40:02.018Z,20.9
2017-07-15T12:45:01.543Z,20.9
2017-07-15T12:50:01.685Z,20.9
2017-07-15T12:55:01.719Z,20.9
2017-07-15T13:00:02.191Z,20.9
2017-07-15T13:05:02.252Z,21
2017-07-15T13:10:01.945Z,21
2017-07-15T13:15:01.507Z,21
2017-07-15T13:20:02.664Z,21.1
2017-07-15T13:25:02.157Z,21.2
2017-07-15T13:30:02.543Z,21.2
2017-07-15T13:35:02.136Z,21.2
2017-07-15T13:40:01.830Z,21.2
2017-07-15T13:45:01.814Z,21.2
2017-07-15T13:50:01.691Z,21.2
2017-07-15T13:55:02.116Z,21.2
2017-07-15T14:00:01.334Z,20.9
2017-07-15T14:05:01.827Z,20.8
2017-07-15T14:10:01.778Z,20.8
2017-07-15T14:15:01.953Z,20.8
2017-07-15T14:20:03.013Z,20.8
2017-07-15T14:25:02.435Z,20.4
2017-07-15T14:30:02.154Z,20.3
2017-07-15T14:35:01.601Z,20.3
2017-07-15T14:40:01.390Z,20.1
2017-07-15T14:45:01.516Z,20.1
2017-07-15T14:50:01.625Z,20
2017-07-15T14:55:02.012Z,19.9
2017-07-15T15:00:01.585Z,19.9
2017-07-15T15:05:01.688Z,20
2017-07-15T15:10:02.256Z,19.9
2017-07-15T15:15:01.507Z,20
2017-07-15T15:20:01.316Z,20
2017-07-15T15:25:01.580Z,20
2017-07-15T15:30:01.663Z,20
2017-07-15T15:35:01.982Z,20.3
2017-07-15T15:40:02.000Z,20.3
2017-07-15T15:45:01.243Z,20.4
2017-07-15T15:50:01.627Z,20.4
2017-07-15T15:55:01.907Z,20.4
2017-07-15T16:00:02.165Z,20.4
2017-07-15T16:05:01.933Z,20.4
2017-07-15T16:10:02.138Z,20.4
2017-07-15T16:15:01.468Z,20.4
2017-07-15T16:20:01.264Z,20.3
2017-07-15T16:25:01.685Z,20.4
2017-07-15T16:30:01.786Z,20.3
2017-07-15T16:35:01.870Z,20.3
2017-07-15T16:40:01.719Z,20.2
2017-07-15T16:45:01.512Z,20.1
2017-07-15T16:50:01.507Z,20.1
2017-07-15T16:55:01.496Z,20.1
2017-07-15T17:00:01.567Z,20.2
2017-07-15T17:05:01.787Z,20.2
2017-07-15T17:10:01.577Z,20
2017-07-15T17:15:01.247Z,20
2017-07-15T17:20:02.000Z,20
2017-07-15T17:25:01.652Z,20
2017-07-15T17:30:01.893Z,20
2017-07-15T17:35:02.192Z,20
2017-07-15T17:40:01.580Z,20.1
2017-07-15T17:45:01.365Z,20.2
2017-07-15T17:50:01.286Z,20
2017-07-15T17:55:01.195Z,20
2017-07-15T18:00:02.039Z,19.9
2017-07-15T18:05:02.317Z,19.9
2017-07-15T18:10:01.886Z,19.9
2017-07-15T18:15:02.036Z,19.9
2017-07-15T18:20:01.754Z,19.9
2017-07-15T18:25:01.936Z,19.9
2017-07-15T18:30:01.341Z,19.9
2017-07-15T18:35:01.484Z,19.9
2017-07-15T18:40:01.892Z,19.9
2017-07-15T18:45:01.951Z,19.9
2017-07-15T18:50:01.903Z,19.9
2017-07-15T18:55:01.302Z,19.7
2017-07-15T19:00:01.436Z,19.6
2017-07-15T19:05:02.011Z,19.5
2017-07-15T19:10:02.091Z,19.3
2017-07-15T19:15:01.460Z,19.3
2017-07-15T19:20:01.975Z,18.9
2017-07-15T19:25:01.901Z,18.8
2017-07-15T19:30:02.058Z,18.8
2017-07-15T19:35:02.176Z,18.5
2017-07-15T19:40:01.943Z,18.3
2017-07-15T19:45:01.735Z,18.2
2017-07-15T19:50:01.747Z,18.2
2017-07-15T19:55:01.465Z,18.2
2017-07-15T20:00:02.130Z,18.2
2017-07-15T20:05:02.033Z,17.6
2017-07-15T20:10:01.265Z,17.4
2017-07-15T20:15:02.166Z,17.4
2017-07-15T20:20:01.678Z,17.2
2017-07-15T20:25:01.687Z,17.1
2017-07-15T20:30:01.848Z,17.1
2017-07-15T20:35:01.474Z,16.9
2017-07-15T20:40:01.235Z,16.9
2017-07-15T20:45:01.805Z,16.7
2017-07-15T20:50:01.505Z,16.7
2017-07-15T20:55:01.532Z,16.5
2017-07-15T21:00:01.545Z,16.4
2017-07-15T21:05:01.346Z,16.4
2017-07-15T21:10:02.137Z,16.4
2017-07-15T21:15:01.371Z,16.1
2017-07-15T21:20:01.284Z,16.1
2017-07-15T21:25:01.833Z,16.1
2017-07-15T21:30:01.903Z,16.1
2017-07-15T21:35:01.191Z,15.8
2017-07-15T21:40:02.032Z,15.7
2017-07-15T21:45:01.626Z,15.6
2017-07-15T21:50:01.354Z,15.6
2017-07-15T21:55:01.313Z,15.5
2017-07-15T22:00:01.345Z,15.5
2017-07-15T22:05:01.940Z,15.3
2017-07-15T22:10:01.709Z,15.2
2017-07-15T22:15:01.234Z,15.2
2017-07-15T22:20:01.949Z,15
2017-07-15T22:25:02.463Z,15
2017-07-15T22:30:01.482Z,15
2017-07-15T22:35:01.360Z,15
2017-07-15T22:40:02.297Z,15
2017-07-15T22:45:01.426Z,15
2017-07-15T22:50:02.069Z,15
2017-07-15T22:55:02.069Z,15
2017-07-15T23:00:01.298Z,15
2017-07-15T23:05:01.365Z,15
2017-07-15T23:10:02.186Z,15
2017-07-15T23:15:01.775Z,14.8
2017-07-15T23:20:02.084Z,14.6
2017-07-15T23:25:02.078Z,14.5
2017-07-15T23:30:02.263Z,14.4
2017-07-15T23:35:01.411Z,14.4
2017-07-15T23:40:02.401Z,14.4
2017-07-15T23:45:01.596Z,14.2
2017-07-15T23:50:01.595Z,14.1
2017-07-15T23:55:02.014Z,14.1
